sensor_id;sensor_type;location;lat;lon;timestamp;pressure;altitude;pressure_sealevel;temperature;humidity
41712;BME280;27399;51.516;13.670;2023-01-23T00:02:17;102216.66;;;3.93;86.66
41712;BME280;27399;51.516;13.670;2023-01-23T00:04:43;102208.38;;;3.85;87.09
41712;BME280;27399;51.516;13.670;2023-01-23T00:07:09;102208.50;;;3.88;87.24
41712;BME280;27399;51.516;13.670;2023-01-23T00:09:35;102208.06;;;3.97;87.24
41712;BME280;27399;51.516;13.670;2023-01-23T00:12:00;102208.00;;;3.77;87.22
41712;BME280;27399;51.516;13.670;2023-01-23T00:14:26;102208.59;;;3.90;87.37
41712;BME280;27399;51.516;13.670;2023-01-23T00:16:52;102196.09;;;3.67;87.69
41712;BME280;27399;51.516;13.670;2023-01-23T00:19:18;102197.88;;;3.86;87.38
41712;BME280;27399;51.516;13.670;2023-01-23T00:21:44;102199.69;;;3.87;87.15
41712;BME280;27399;51.516;13.670;2023-01-23T00:24:10;102211.38;;;3.93;87.18
41712;BME280;27399;51.516;13.670;2023-01-23T00:26:36;102210.53;;;3.94;87.37
41712;BME280;27399;51.516;13.670;2023-01-23T00:29:03;102199.25;;;3.78;87.22
41712;BME280;27399;51.516;13.670;2023-01-23T00:31:34;102199.03;;;3.74;87.92
41712;BME280;27399;51.516;13.670;2023-01-23T00:34:03;102160.91;;;3.67;87.49
41712;BME280;27399;51.516;13.670;2023-01-23T00:36:37;102192.22;;;3.79;87.48
41712;BME280;27399;51.516;13.670;2023-01-23T00:39:05;102209.56;;;3.92;87.16
41712;BME280;27399;51.516;13.670;2023-01-23T00:41:31;102209.50;;;3.90;87.26
41712;BME280;27399;51.516;13.670;2023-01-23T00:43:57;102218.78;;;3.82;87.57
41712;BME280;27399;51.516;13.670;2023-01-23T00:46:23;102221.66;;;3.86;87.45
41712;BME280;27399;51.516;13.670;2023-01-23T00:48:49;102225.50;;;3.93;87.35
41712;BME280;27399;51.516;13.670;2023-01-23T00:51:15;102224.78;;;3.97;87.02
41712;BME280;27399;51.516;13.670;2023-01-23T00:53:41;102225.72;;;3.98;86.93
41712;BME280;27399;51.516;13.670;2023-01-23T00:56:07;102218.81;;;4.01;86.78
41712;BME280;27399;51.516;13.670;2023-01-23T00:58:33;102207.91;;;3.94;86.55
41712;BME280;27399;51.516;13.670;2023-01-23T01:00:58;102230.50;;;3.69;87.68
41712;BME280;27399;51.516;13.670;2023-01-23T01:03:24;102228.69;;;3.86;87.38
41712;BME280;27399;51.516;13.670;2023-01-23T01:05:50;102234.19;;;3.72;87.50
41712;BME280;27399;51.516;13.670;2023-01-23T01:08:16;102229.63;;;3.88;87.39
41712;BME280;27399;51.516;13.670;2023-01-23T01:10:42;102234.03;;;3.69;87.37
41712;BME280;27399;51.516;13.670;2023-01-23T01:13:08;102240.19;;;3.88;87.18
41712;BME280;27399;51.516;13.670;2023-01-23T01:15:34;102238.97;;;3.81;87.67
41712;BME280;27399;51.516;13.670;2023-01-23T01:18:00;102245.84;;;3.96;87.16
41712;BME280;27399;51.516;13.670;2023-01-23T01:20:27;102246.00;;;3.81;87.62
41712;BME280;27399;51.516;13.670;2023-01-23T01:22:54;102235.22;;;3.94;86.90
41712;BME280;27399;51.516;13.670;2023-01-23T01:25:21;102240.28;;;3.90;87.08
41712;BME280;27399;51.516;13.670;2023-01-23T01:27:46;102242.53;;;3.64;88.61
41712;BME280;27399;51.516;13.670;2023-01-23T01:30:13;102234.63;;;3.64;87.61
41712;BME280;27399;51.516;13.670;2023-01-23T01:32:40;102246.50;;;3.92;87.87
41712;BME280;27399;51.516;13.670;2023-01-23T01:35:07;102248.19;;;3.90;87.63
41712;BME280;27399;51.516;13.670;2023-01-23T01:37:33;102248.09;;;3.88;87.68
41712;BME280;27399;51.516;13.670;2023-01-23T01:39:59;102259.22;;;3.81;87.53
41712;BME280;27399;51.516;13.670;2023-01-23T01:42:26;102260.19;;;3.83;87.83
41712;BME280;27399;51.516;13.670;2023-01-23T01:47:18;102267.06;;;3.79;88.01
41712;BME280;27399;51.516;13.670;2023-01-23T01:49:43;102265.91;;;3.74;88.31
41712;BME280;27399;51.516;13.670;2023-01-23T01:52:11;102278.72;;;3.84;87.73
41712;BME280;27399;51.516;13.670;2023-01-23T01:54:54;102274.00;;;3.77;88.08
41712;BME280;27399;51.516;13.670;2023-01-23T01:57:25;102278.97;;;3.89;87.61
41712;BME280;27399;51.516;13.670;2023-01-23T02:00:11;102278.50;;;3.80;88.00
41712;BME280;27399;51.516;13.670;2023-01-23T02:03:03;102281.22;;;3.81;87.68
41712;BME280;27399;51.516;13.670;2023-01-23T02:05:38;102282.69;;;3.75;87.87
41712;BME280;27399;51.516;13.670;2023-01-23T02:08:09;102286.88;;;3.89;88.06
41712;BME280;27399;51.516;13.670;2023-01-23T02:10:39;102293.59;;;3.82;87.87
41712;BME280;27399;51.516;13.670;2023-01-23T02:13:25;102290.06;;;4.00;87.02
41712;BME280;27399;51.516;13.670;2023-01-23T02:16:10;102288.19;;;3.79;87.66
41712;BME280;27399;51.516;13.670;2023-01-23T02:18:40;102285.75;;;3.84;88.05
41712;BME280;27399;51.516;13.670;2023-01-23T02:21:10;102294.50;;;3.83;87.78
41712;BME280;27399;51.516;13.670;2023-01-23T02:26:19;102289.81;;;3.59;88.26
41712;BME280;27399;51.516;13.670;2023-01-23T02:28:49;102289.13;;;3.81;87.79
41712;BME280;27399;51.516;13.670;2023-01-23T02:31:21;102272.63;;;3.85;87.68
41712;BME280;27399;51.516;13.670;2023-01-23T02:33:52;102290.28;;;3.86;87.61
41712;BME280;27399;51.516;13.670;2023-01-23T02:36:20;102289.13;;;3.81;87.68
41712;BME280;27399;51.516;13.670;2023-01-23T02:39:08;102293.13;;;3.73;87.77
41712;BME280;27399;51.516;13.670;2023-01-23T02:41:39;102294.28;;;3.78;88.33
41712;BME280;27399;51.516;13.670;2023-01-23T02:44:26;102294.41;;;3.81;87.78
41712;BME280;27399;51.516;13.670;2023-01-23T02:46:57;102299.69;;;3.81;87.85
41712;BME280;27399;51.516;13.670;2023-01-23T02:49:23;102301.28;;;3.96;87.56
41712;BME280;27399;51.516;13.670;2023-01-23T02:51:50;102295.28;;;3.80;88.08
41712;BME280;27399;51.516;13.670;2023-01-23T02:54:16;102301.88;;;3.90;87.71
41712;BME280;27399;51.516;13.670;2023-01-23T02:56:44;102307.50;;;3.96;87.28
41712;BME280;27399;51.516;13.670;2023-01-23T02:59:10;102316.31;;;3.97;87.55
41712;BME280;27399;51.516;13.670;2023-01-23T03:01:54;102313.81;;;3.82;87.63
41712;BME280;27399;51.516;13.670;2023-01-23T03:04:20;102311.69;;;3.93;87.66
41712;BME280;27399;51.516;13.670;2023-01-23T03:06:45;102312.91;;;3.99;87.47
41712;BME280;27399;51.516;13.670;2023-01-23T03:09:14;102314.88;;;3.85;87.65
41712;BME280;27399;51.516;13.670;2023-01-23T03:11:42;102311.63;;;3.73;88.28
41712;BME280;27399;51.516;13.670;2023-01-23T03:14:14;102312.00;;;3.81;87.98
41712;BME280;27399;51.516;13.670;2023-01-23T03:16:40;102314.19;;;3.90;87.68
41712;BME280;27399;51.516;13.670;2023-01-23T03:19:08;102318.78;;;3.94;87.46
41712;BME280;27399;51.516;13.670;2023-01-23T03:21:38;102319.97;;;3.82;87.82
41712;BME280;27399;51.516;13.670;2023-01-23T03:24:06;102331.59;;;3.68;88.08
41712;BME280;27399;51.516;13.670;2023-01-23T03:26:32;102324.59;;;3.86;87.69
41712;BME280;27399;51.516;13.670;2023-01-23T03:28:58;102332.91;;;3.94;87.31
41712;BME280;27399;51.516;13.670;2023-01-23T03:31:42;102323.31;;;3.78;87.55
41712;BME280;27399;51.516;13.670;2023-01-23T03:34:08;102320.53;;;3.93;87.79
41712;BME280;27399;51.516;13.670;2023-01-23T03:36:34;102316.69;;;3.86;87.56
41712;BME280;27399;51.516;13.670;2023-01-23T03:39:07;102316.53;;;3.83;87.92
41712;BME280;27399;51.516;13.670;2023-01-23T03:41:52;102318.13;;;3.98;87.57
41712;BME280;27399;51.516;13.670;2023-01-23T03:44:18;102313.97;;;3.85;87.73
41712;BME280;27399;51.516;13.670;2023-01-23T03:46:49;102315.16;;;3.92;87.45
41712;BME280;27399;51.516;13.670;2023-01-23T03:49:16;102317.44;;;3.84;87.82
41712;BME280;27399;51.516;13.670;2023-01-23T03:51:42;102314.72;;;3.82;87.75
41712;BME280;27399;51.516;13.670;2023-01-23T03:54:09;102316.22;;;3.77;88.10
41712;BME280;27399;51.516;13.670;2023-01-23T03:56:35;102313.50;;;3.94;87.48
41712;BME280;27399;51.516;13.670;2023-01-23T03:59:00;102317.28;;;3.81;87.85
41712;BME280;27399;51.516;13.670;2023-01-23T04:01:26;102313.59;;;3.95;87.56
41712;BME280;27399;51.516;13.670;2023-01-23T04:03:52;102318.44;;;3.86;87.24
41712;BME280;27399;51.516;13.670;2023-01-23T04:06:18;102321.31;;;3.91;87.31
41712;BME280;27399;51.516;13.670;2023-01-23T04:08:43;102321.53;;;3.95;87.21
41712;BME280;27399;51.516;13.670;2023-01-23T04:11:10;102324.88;;;3.93;87.08
41712;BME280;27399;51.516;13.670;2023-01-23T04:13:36;102316.84;;;3.90;87.07
41712;BME280;27399;51.516;13.670;2023-01-23T04:16:03;102304.03;;;3.79;87.54
41712;BME280;27399;51.516;13.670;2023-01-23T04:18:29;102321.97;;;4.05;86.83
41712;BME280;27399;51.516;13.670;2023-01-23T04:20:55;102318.47;;;3.69;87.73
41712;BME280;27399;51.516;13.670;2023-01-23T04:23:21;102304.16;;;3.82;87.76
41712;BME280;27399;51.516;13.670;2023-01-23T04:25:47;102332.53;;;3.86;87.60
41712;BME280;27399;51.516;13.670;2023-01-23T04:28:13;102333.56;;;3.72;88.00
41712;BME280;27399;51.516;13.670;2023-01-23T04:30:39;102339.28;;;3.81;87.74
41712;BME280;27399;51.516;13.670;2023-01-23T04:33:04;102345.34;;;3.79;87.67
41712;BME280;27399;51.516;13.670;2023-01-23T04:35:30;102337.81;;;3.86;87.72
41712;BME280;27399;51.516;13.670;2023-01-23T04:37:56;102349.56;;;3.75;88.26
41712;BME280;27399;51.516;13.670;2023-01-23T04:40:21;102352.34;;;3.78;87.91
41712;BME280;27399;51.516;13.670;2023-01-23T04:42:47;102362.22;;;3.82;87.62
41712;BME280;27399;51.516;13.670;2023-01-23T04:45:12;102363.75;;;3.77;87.68
41712;BME280;27399;51.516;13.670;2023-01-23T04:47:38;102360.81;;;3.89;87.74
41712;BME280;27399;51.516;13.670;2023-01-23T04:50:04;102367.50;;;3.82;87.76
41712;BME280;27399;51.516;13.670;2023-01-23T04:52:30;102366.75;;;4.03;87.09
41712;BME280;27399;51.516;13.670;2023-01-23T04:54:56;102370.94;;;3.98;86.93
41712;BME280;27399;51.516;13.670;2023-01-23T04:57:22;102357.88;;;4.01;87.25
41712;BME280;27399;51.516;13.670;2023-01-23T04:59:48;102358.25;;;3.91;87.62
41712;BME280;27399;51.516;13.670;2023-01-23T05:02:13;102363.66;;;3.94;87.29
41712;BME280;27399;51.516;13.670;2023-01-23T05:04:39;102356.81;;;3.97;86.86
41712;BME280;27399;51.516;13.670;2023-01-23T05:07:05;102362.56;;;4.07;86.88
41712;BME280;27399;51.516;13.670;2023-01-23T05:09:30;102372.66;;;3.97;87.18
41712;BME280;27399;51.516;13.670;2023-01-23T05:11:56;102378.38;;;3.88;87.33
41712;BME280;27399;51.516;13.670;2023-01-23T05:14:22;102379.66;;;3.97;87.42
41712;BME280;27399;51.516;13.670;2023-01-23T05:16:49;102387.75;;;4.00;87.27
41712;BME280;27399;51.516;13.670;2023-01-23T05:19:15;102388.75;;;4.02;87.13
41712;BME280;27399;51.516;13.670;2023-01-23T05:21:41;102394.97;;;4.04;86.89
41712;BME280;27399;51.516;13.670;2023-01-23T05:24:07;102396.66;;;4.02;86.92
41712;BME280;27399;51.516;13.670;2023-01-23T05:26:34;102387.22;;;4.07;86.85
41712;BME280;27399;51.516;13.670;2023-01-23T05:29:00;102386.09;;;4.02;87.14
41712;BME280;27399;51.516;13.670;2023-01-23T05:31:26;102392.28;;;4.02;86.87
41712;BME280;27399;51.516;13.670;2023-01-23T05:33:52;102394.69;;;3.98;86.92
41712;BME280;27399;51.516;13.670;2023-01-23T05:36:18;102394.38;;;3.92;87.15
41712;BME280;27399;51.516;13.670;2023-01-23T05:38:43;102394.06;;;3.85;87.45
41712;BME280;27399;51.516;13.670;2023-01-23T05:41:09;102401.38;;;3.91;87.79
41712;BME280;27399;51.516;13.670;2023-01-23T05:43:34;102399.50;;;3.88;87.54
41712;BME280;27399;51.516;13.670;2023-01-23T05:46:01;102401.91;;;3.84;87.70
41712;BME280;27399;51.516;13.670;2023-01-23T05:48:27;102398.75;;;3.91;87.62
41712;BME280;27399;51.516;13.670;2023-01-23T05:50:52;102391.53;;;4.05;87.27
41712;BME280;27399;51.516;13.670;2023-01-23T05:53:18;102396.50;;;3.99;86.99
41712;BME280;27399;51.516;13.670;2023-01-23T05:55:44;102400.97;;;4.00;87.24
41712;BME280;27399;51.516;13.670;2023-01-23T05:58:09;102405.31;;;3.99;87.06
41712;BME280;27399;51.516;13.670;2023-01-23T06:00:35;102397.25;;;3.96;87.16
41712;BME280;27399;51.516;13.670;2023-01-23T06:03:01;102403.34;;;3.61;88.13
41712;BME280;27399;51.516;13.670;2023-01-23T06:05:26;102404.16;;;3.76;88.46
41712;BME280;27399;51.516;13.670;2023-01-23T06:07:52;102406.97;;;3.79;87.77
41712;BME280;27399;51.516;13.670;2023-01-23T06:10:18;102413.69;;;3.91;87.84
41712;BME280;27399;51.516;13.670;2023-01-23T06:12:43;102404.78;;;3.88;87.26
41712;BME280;27399;51.516;13.670;2023-01-23T06:15:10;102416.56;;;3.95;87.33
41712;BME280;27399;51.516;13.670;2023-01-23T06:17:35;102422.56;;;3.93;87.86
41712;BME280;27399;51.516;13.670;2023-01-23T06:20:02;102416.09;;;3.86;87.54
41712;BME280;27399;51.516;13.670;2023-01-23T06:22:28;102423.75;;;3.81;87.80
41712;BME280;27399;51.516;13.670;2023-01-23T06:24:54;102420.66;;;3.72;88.04
41712;BME280;27399;51.516;13.670;2023-01-23T06:27:19;102419.69;;;3.70;87.91
41712;BME280;27399;51.516;13.670;2023-01-23T06:29:45;102421.84;;;3.95;87.78
41712;BME280;27399;51.516;13.670;2023-01-23T06:32:10;102415.94;;;3.83;87.80
41712;BME280;27399;51.516;13.670;2023-01-23T06:34:36;102427.56;;;3.86;87.90
41712;BME280;27399;51.516;13.670;2023-01-23T06:37:02;102430.63;;;3.78;88.17
41712;BME280;27399;51.516;13.670;2023-01-23T06:39:28;102441.22;;;3.96;87.55
41712;BME280;27399;51.516;13.670;2023-01-23T06:41:55;102440.16;;;3.92;87.60
41712;BME280;27399;51.516;13.670;2023-01-23T06:44:21;102433.25;;;3.78;88.07
41712;BME280;27399;51.516;13.670;2023-01-23T06:46:47;102434.47;;;4.01;87.13
41712;BME280;27399;51.516;13.670;2023-01-23T06:49:13;102435.47;;;3.86;87.63
41712;BME280;27399;51.516;13.670;2023-01-23T06:51:39;102433.25;;;3.94;87.92
41712;BME280;27399;51.516;13.670;2023-01-23T06:54:05;102431.66;;;3.98;87.39
41712;BME280;27399;51.516;13.670;2023-01-23T06:56:30;102433.13;;;3.93;87.72
41712;BME280;27399;51.516;13.670;2023-01-23T06:58:56;102433.38;;;3.97;87.60
41712;BME280;27399;51.516;13.670;2023-01-23T07:01:22;102441.63;;;3.69;88.15
41712;BME280;27399;51.516;13.670;2023-01-23T07:03:48;102428.91;;;3.78;87.93
41712;BME280;27399;51.516;13.670;2023-01-23T07:06:14;102431.03;;;3.85;88.25
41712;BME280;27399;51.516;13.670;2023-01-23T07:08:41;102439.00;;;3.87;88.01
41712;BME280;27399;51.516;13.670;2023-01-23T07:11:07;102442.84;;;3.76;88.29
41712;BME280;27399;51.516;13.670;2023-01-23T07:13:33;102455.16;;;3.59;88.99
41712;BME280;27399;51.516;13.670;2023-01-23T07:15:59;102455.59;;;3.84;88.20
41712;BME280;27399;51.516;13.670;2023-01-23T07:18:24;102459.81;;;3.81;88.46
41712;BME280;27399;51.516;13.670;2023-01-23T07:20:53;102464.22;;;3.98;87.56
41712;BME280;27399;51.516;13.670;2023-01-23T07:23:19;102466.63;;;3.94;87.84
41712;BME280;27399;51.516;13.670;2023-01-23T07:25:44;102460.53;;;3.95;87.60
41712;BME280;27399;51.516;13.670;2023-01-23T07:28:10;102473.78;;;3.78;88.35
41712;BME280;27399;51.516;13.670;2023-01-23T07:30:36;102469.22;;;3.92;87.73
41712;BME280;27399;51.516;13.670;2023-01-23T07:33:02;102475.25;;;3.90;87.51
41712;BME280;27399;51.516;13.670;2023-01-23T07:35:28;102492.56;;;3.84;88.05
41712;BME280;27399;51.516;13.670;2023-01-23T07:37:53;102494.38;;;3.85;88.44
41712;BME280;27399;51.516;13.670;2023-01-23T07:40:19;102499.97;;;3.92;87.67
41712;BME280;27399;51.516;13.670;2023-01-23T07:42:44;102492.84;;;3.72;88.26
41712;BME280;27399;51.516;13.670;2023-01-23T07:45:11;102501.66;;;3.90;87.94
41712;BME280;27399;51.516;13.670;2023-01-23T07:47:37;102507.59;;;3.85;87.98
41712;BME280;27399;51.516;13.670;2023-01-23T07:50:08;102518.31;;;3.72;88.00
41712;BME280;27399;51.516;13.670;2023-01-23T07:52:35;102514.91;;;3.91;87.90
41712;BME280;27399;51.516;13.670;2023-01-23T07:55:01;102523.59;;;3.88;87.86
41712;BME280;27399;51.516;13.670;2023-01-23T07:57:27;102522.53;;;3.85;87.83
41712;BME280;27399;51.516;13.670;2023-01-23T07:59:53;102529.59;;;4.02;87.49
41712;BME280;27399;51.516;13.670;2023-01-23T08:02:18;102533.47;;;3.93;87.57
41712;BME280;27399;51.516;13.670;2023-01-23T08:04:44;102535.06;;;3.89;87.52
41712;BME280;27399;51.516;13.670;2023-01-23T08:07:09;102536.53;;;4.00;87.78
41712;BME280;27399;51.516;13.670;2023-01-23T08:09:35;102536.94;;;3.92;87.44
41712;BME280;27399;51.516;13.670;2023-01-23T08:12:01;102543.25;;;3.77;88.52
41712;BME280;27399;51.516;13.670;2023-01-23T08:14:26;102548.72;;;3.98;87.82
41712;BME280;27399;51.516;13.670;2023-01-23T08:16:52;102551.06;;;3.92;87.91
41712;BME280;27399;51.516;13.670;2023-01-23T08:19:18;102552.28;;;3.82;87.61
41712;BME280;27399;51.516;13.670;2023-01-23T08:21:44;102552.53;;;4.03;87.62
41712;BME280;27399;51.516;13.670;2023-01-23T08:24:11;102556.28;;;3.91;88.08
41712;BME280;27399;51.516;13.670;2023-01-23T08:26:37;102549.06;;;4.05;87.42
41712;BME280;27399;51.516;13.670;2023-01-23T08:29:03;102551.47;;;4.00;87.29
41712;BME280;27399;51.516;13.670;2023-01-23T08:31:28;102557.00;;;4.05;87.19
41712;BME280;27399;51.516;13.670;2023-01-23T08:33:55;102560.38;;;4.02;87.37
41712;BME280;27399;51.516;13.670;2023-01-23T08:36:21;102553.78;;;4.10;87.03
41712;BME280;27399;51.516;13.670;2023-01-23T08:38:46;102561.34;;;4.04;87.01
41712;BME280;27399;51.516;13.670;2023-01-23T08:41:12;102564.41;;;4.12;86.67
41712;BME280;27399;51.516;13.670;2023-01-23T08:43:39;102559.72;;;4.06;87.01
41712;BME280;27399;51.516;13.670;2023-01-23T08:46:08;102554.75;;;3.96;87.63
41712;BME280;27399;51.516;13.670;2023-01-23T08:48:34;102561.34;;;4.04;87.01
41712;BME280;27399;51.516;13.670;2023-01-23T08:51:05;102560.28;;;4.00;87.77
41712;BME280;27399;51.516;13.670;2023-01-23T08:53:32;102561.53;;;4.07;87.49
41712;BME280;27399;51.516;13.670;2023-01-23T08:56:03;102570.34;;;4.08;87.35
41712;BME280;27399;51.516;13.670;2023-01-23T08:58:30;102574.22;;;4.14;87.09
41712;BME280;27399;51.516;13.670;2023-01-23T09:00:56;102572.16;;;4.09;86.91
41712;BME280;27399;51.516;13.670;2023-01-23T09:03:22;102577.19;;;4.04;87.38
41712;BME280;27399;51.516;13.670;2023-01-23T09:05:48;102569.16;;;4.19;86.96
41712;BME280;27399;51.516;13.670;2023-01-23T09:08:13;102577.38;;;4.07;88.02
41712;BME280;27399;51.516;13.670;2023-01-23T09:10:39;102574.44;;;4.19;87.23
41712;BME280;27399;51.516;13.670;2023-01-23T09:13:05;102583.47;;;4.23;87.22
41712;BME280;27399;51.516;13.670;2023-01-23T09:15:31;102578.09;;;4.21;87.37
41712;BME280;27399;51.516;13.670;2023-01-23T09:17:56;102577.66;;;4.30;86.86
41712;BME280;27399;51.516;13.670;2023-01-23T09:20:22;102581.97;;;4.28;86.92
41712;BME280;27399;51.516;13.670;2023-01-23T09:22:51;102570.97;;;4.02;87.80
41712;BME280;27399;51.516;13.670;2023-01-23T09:25:17;102577.69;;;4.13;87.67
41712;BME280;27399;51.516;13.670;2023-01-23T09:27:43;102584.16;;;4.02;87.75
41712;BME280;27399;51.516;13.670;2023-01-23T09:30:09;102585.13;;;4.21;87.37
41712;BME280;27399;51.516;13.670;2023-01-23T09:32:35;102586.41;;;4.29;87.17
41712;BME280;27399;51.516;13.670;2023-01-23T09:35:00;102578.91;;;4.20;87.61
41712;BME280;27399;51.516;13.670;2023-01-23T09:37:29;102579.75;;;4.19;87.07
41712;BME280;27399;51.516;13.670;2023-01-23T09:40:17;102580.56;;;4.18;87.43
41712;BME280;27399;51.516;13.670;2023-01-23T09:42:44;102577.78;;;4.15;87.49
41712;BME280;27399;51.516;13.670;2023-01-23T09:45:15;102572.16;;;4.09;87.68
41712;BME280;27399;51.516;13.670;2023-01-23T09:50:36;102579.91;;;4.22;88.27
41712;BME280;27399;51.516;13.670;2023-01-23T09:53:15;102575.56;;;4.23;87.71
41712;BME280;27399;51.516;13.670;2023-01-23T09:55:55;102570.28;;;4.23;87.61
41712;BME280;27399;51.516;13.670;2023-01-23T09:58:31;102564.88;;;4.38;87.16
41712;BME280;27399;51.516;13.670;2023-01-23T10:00:59;102574.34;;;4.34;87.64
41712;BME280;27399;51.516;13.670;2023-01-23T10:03:29;102570.06;;;4.36;87.71
41712;BME280;27399;51.516;13.670;2023-01-23T10:11:49;102563.94;;;4.37;87.79
41712;BME280;27399;51.516;13.670;2023-01-23T10:20:13;102565.88;;;4.58;86.57
41712;BME280;27399;51.516;13.670;2023-01-23T10:22:47;102562.38;;;4.59;86.92
41712;BME280;27399;51.516;13.670;2023-01-23T10:25:23;102555.25;;;4.40;87.42
41712;BME280;27399;51.516;13.670;2023-01-23T10:27:50;102562.00;;;4.33;87.63
41712;BME280;27399;51.516;13.670;2023-01-23T10:30:33;102561.75;;;4.46;87.48
41712;BME280;27399;51.516;13.670;2023-01-23T10:33:15;102555.97;;;4.54;87.29
41712;BME280;27399;51.516;13.670;2023-01-23T10:36:02;102543.97;;;4.26;87.69
41712;BME280;27399;51.516;13.670;2023-01-23T10:38:52;102550.97;;;4.42;87.07
41712;BME280;27399;51.516;13.670;2023-01-23T10:41:20;102550.22;;;4.44;87.10
41712;BME280;27399;51.516;13.670;2023-01-23T10:43:50;102531.13;;;4.15;88.05
41712;BME280;27399;51.516;13.670;2023-01-23T10:46:18;102551.72;;;4.39;87.94
41712;BME280;27399;51.516;13.670;2023-01-23T10:48:45;102555.34;;;4.41;88.36
41712;BME280;27399;51.516;13.670;2023-01-23T10:54:15;102560.00;;;4.29;87.93
41712;BME280;27399;51.516;13.670;2023-01-23T10:59:25;102554.22;;;4.54;86.78
41712;BME280;27399;51.516;13.670;2023-01-23T11:04:41;102560.31;;;4.35;87.80
41712;BME280;27399;51.516;13.670;2023-01-23T11:09:57;102549.38;;;4.45;87.10
41712;BME280;27399;51.516;13.670;2023-01-23T11:12:29;102553.66;;;4.25;87.94
41712;BME280;27399;51.516;13.670;2023-01-23T11:15:28;102552.72;;;4.25;88.37
41712;BME280;27399;51.516;13.670;2023-01-23T11:17:55;102556.38;;;4.27;87.29
41712;BME280;27399;51.516;13.670;2023-01-23T11:25:40;102553.25;;;4.17;88.52
41712;BME280;27399;51.516;13.670;2023-01-23T11:28:28;102556.19;;;4.24;87.83
41712;BME280;27399;51.516;13.670;2023-01-23T11:31:20;102562.53;;;4.44;87.50
41712;BME280;27399;51.516;13.670;2023-01-23T11:34:08;102558.22;;;4.46;87.03
41712;BME280;27399;51.516;13.670;2023-01-23T11:36:53;102561.13;;;4.34;87.46
41712;BME280;27399;51.516;13.670;2023-01-23T11:39:24;102563.47;;;4.28;88.07
41712;BME280;27399;51.516;13.670;2023-01-23T11:41:56;102558.72;;;4.21;87.90
41712;BME280;27399;51.516;13.670;2023-01-23T11:44:22;102565.56;;;4.17;87.98
41712;BME280;27399;51.516;13.670;2023-01-23T11:50:14;102565.81;;;4.22;88.61
41712;BME280;27399;51.516;13.670;2023-01-23T11:52:49;102560.81;;;4.28;87.65
41712;BME280;27399;51.516;13.670;2023-01-23T12:01:19;102551.06;;;4.43;87.20
41712;BME280;27399;51.516;13.670;2023-01-23T12:17:54;102536.75;;;4.40;87.11
41712;BME280;27399;51.516;13.670;2023-01-23T12:24:25;102535.75;;;4.19;88.13
41712;BME280;27399;51.516;13.670;2023-01-23T12:26:22;102534.22;;;4.41;87.61
41712;BME280;27399;51.516;13.670;2023-01-23T12:32:05;102533.69;;;4.14;88.01
41712;BME280;27399;51.516;13.670;2023-01-23T12:34:53;102538.56;;;4.23;87.94
41712;BME280;27399;51.516;13.670;2023-01-23T12:40:12;102528.97;;;4.25;88.65
41712;BME280;27399;51.516;13.670;2023-01-23T12:45:42;102519.13;;;4.39;87.78
41712;BME280;27399;51.516;13.670;2023-01-23T12:48:15;102529.59;;;4.37;87.64
41712;BME280;27399;51.516;13.670;2023-01-23T12:57:28;102528.38;;;4.30;87.33
41712;BME280;27399;51.516;13.670;2023-01-23T13:03:43;102532.69;;;4.28;87.11
41712;BME280;27399;51.516;13.670;2023-01-23T13:09:06;102541.63;;;4.14;87.39
41712;BME280;27399;51.516;13.670;2023-01-23T13:14:22;102544.16;;;4.29;87.41
41712;BME280;27399;51.516;13.670;2023-01-23T13:16:51;102542.28;;;4.10;88.06
41712;BME280;27399;51.516;13.670;2023-01-23T13:19:29;102537.22;;;4.31;87.53
41712;BME280;27399;51.516;13.670;2023-01-23T13:22:22;102551.19;;;4.28;87.33
41712;BME280;27399;51.516;13.670;2023-01-23T13:24:49;102547.44;;;4.25;87.04
41712;BME280;27399;51.516;13.670;2023-01-23T13:27:38;102541.16;;;4.05;87.61
41712;BME280;27399;51.516;13.670;2023-01-23T13:32:51;102541.81;;;4.00;87.83
41712;BME280;27399;51.516;13.670;2023-01-23T13:52:38;102547.97;;;4.17;87.81
41712;BME280;27399;51.516;13.670;2023-01-23T13:55:29;102534.75;;;4.17;88.34
41712;BME280;27399;51.516;13.670;2023-01-23T13:58:16;102541.56;;;4.12;87.68
41712;BME280;27399;51.516;13.670;2023-01-23T14:00:55;102544.09;;;4.11;87.75
41712;BME280;27399;51.516;13.670;2023-01-23T14:03:45;102535.34;;;4.12;88.15
41712;BME280;27399;51.516;13.670;2023-01-23T14:06:34;102547.44;;;4.25;87.62
41712;BME280;27399;51.516;13.670;2023-01-23T14:09:01;102550.19;;;4.26;87.42
41712;BME280;27399;51.516;13.670;2023-01-23T14:11:44;102543.84;;;4.23;87.17
41712;BME280;27399;51.516;13.670;2023-01-23T14:14:10;102542.63;;;4.16;87.32
41712;BME280;27399;51.516;13.670;2023-01-23T14:16:55;102536.59;;;4.18;88.04
41712;BME280;27399;51.516;13.670;2023-01-23T14:19:28;102544.28;;;4.14;87.50
41712;BME280;27399;51.516;13.670;2023-01-23T14:22:02;102550.69;;;4.19;87.25
41712;BME280;27399;51.516;13.670;2023-01-23T14:24:49;102547.16;;;4.18;87.35
41712;BME280;27399;51.516;13.670;2023-01-23T14:27:28;102545.41;;;4.19;87.54
41712;BME280;27399;51.516;13.670;2023-01-23T14:30:16;102548.63;;;4.30;87.08
41712;BME280;27399;51.516;13.670;2023-01-23T14:32:43;102552.59;;;4.05;87.70
41712;BME280;27399;51.516;13.670;2023-01-23T14:35:36;102547.69;;;4.29;87.22
41712;BME280;27399;51.516;13.670;2023-01-23T14:38:05;102549.63;;;4.15;87.50
41712;BME280;27399;51.516;13.670;2023-01-23T14:40:32;102552.44;;;4.18;87.15
41712;BME280;27399;51.516;13.670;2023-01-23T14:43:04;102555.25;;;4.05;87.24
41712;BME280;27399;51.516;13.670;2023-01-23T14:45:32;102547.50;;;3.92;87.56
41712;BME280;27399;51.516;13.670;2023-01-23T14:47:58;102546.31;;;4.19;86.81
41712;BME280;27399;51.516;13.670;2023-01-23T14:50:26;102546.09;;;4.15;87.26